createdAt,value
2022-09-28T00:02:12.703Z,81.35
2022-09-28T00:04:39.273Z,82.69
2022-09-28T00:07:05.741Z,82.29
2022-09-28T00:09:32.279Z,81.49
2022-09-28T00:11:59.511Z,82.19
2022-09-28T00:14:26.373Z,81.97
2022-09-28T00:16:53.005Z,81.45
2022-09-28T00:19:19.476Z,80.96
2022-09-28T00:21:46.157Z,80.10
2022-09-28T00:24:18.723Z,79.83
2022-09-28T00:26:54.227Z,80.30
2022-09-28T00:29:31.692Z,80.06
2022-09-28T00:32:03.489Z,79.94
2022-09-28T00:34:35.371Z,82.74
2022-09-28T00:37:03.461Z,82.02
2022-09-28T00:39:32.780Z,82.07
2022-09-28T00:41:59.797Z,82.54
2022-09-28T00:44:26.192Z,83.49
2022-09-28T00:47:04.368Z,83.29
2022-09-28T00:49:43.335Z,82.55
2022-09-28T00:52:13.764Z,81.60
2022-09-28T00:54:42.079Z,79.79
2022-09-28T00:57:08.719Z,80.63
2022-09-28T00:59:35.378Z,80.21
2022-09-28T01:02:02.379Z,80.21
2022-09-28T01:04:30.216Z,80.99
2022-09-28T01:06:58.227Z,80.38
2022-09-28T01:09:26.335Z,80.42
2022-09-28T01:11:53.185Z,81.79
2022-09-28T01:14:20.727Z,82.48
2022-09-28T01:17:00.551Z,81.80
2022-09-28T01:20:05.755Z,81.26
2022-09-28T01:22:49.767Z,80.13
2022-09-28T01:25:42.295Z,81.51
2022-09-28T01:28:14.822Z,81.54
2022-09-28T01:30:45.558Z,80.78
2022-09-28T01:33:15.611Z,80.25
2022-09-28T01:35:46.411Z,79.17
2022-09-28T01:38:17.830Z,79.21
2022-09-28T01:40:45.790Z,81.10
2022-09-28T01:43:19.245Z,81.24
2022-09-28T01:46:07.963Z,79.40
2022-09-28T01:48:58.397Z,80.71
2022-09-28T01:51:50.134Z,80.08
2022-09-28T01:54:26.277Z,79.97
2022-09-28T01:57:00.567Z,79.24
2022-09-28T01:59:31.176Z,79.41
2022-09-28T02:02:02.286Z,80.71
2022-09-28T02:04:46.285Z,80.93
2022-09-28T02:07:17.128Z,80.49
2022-09-28T02:09:47.271Z,79.40
2022-09-28T02:12:18.709Z,79.61
2022-09-28T02:14:47.403Z,80.66
2022-09-28T02:17:16.177Z,80.67
2022-09-28T02:19:43.271Z,80.96
2022-09-28T02:22:15.866Z,80.20
2022-09-28T02:25:05.542Z,79.93
2022-09-28T02:27:40.908Z,80.10
2022-09-28T02:30:08.065Z,79.94
2022-09-28T02:32:41.088Z,79.32
2022-09-28T02:35:18.038Z,78.66
2022-09-28T02:37:44.835Z,78.84
2022-09-28T02:40:16.314Z,78.74
2022-09-28T02:43:11.610Z,79.03
2022-09-28T02:45:56.421Z,79.17
2022-09-28T02:49:04.931Z,80.16
2022-09-28T02:51:56.740Z,81.54
2022-09-28T02:54:44.473Z,81.49
2022-09-28T02:57:32.137Z,80.82
2022-09-28T03:00:12.717Z,79.91
2022-09-28T03:02:46.366Z,80.50
2022-09-28T03:05:16.048Z,79.92
2022-09-28T03:08:02.420Z,80.12
2022-09-28T03:10:51.559Z,79.43
2022-09-28T03:13:18.145Z,79.41
2022-09-28T03:15:48.527Z,79.19
2022-09-28T03:18:15.569Z,79.93
2022-09-28T03:20:42.022Z,79.58
2022-09-28T03:23:25.310Z,78.62
2022-09-28T03:25:52.124Z,79.27
2022-09-28T03:28:18.601Z,79.84
2022-09-28T03:30:45.212Z,79.39
2022-09-28T03:33:11.709Z,79.99
2022-09-28T03:35:38.299Z,79.87
2022-09-28T03:38:04.874Z,79.60
2022-09-28T03:40:31.346Z,79.78
2022-09-28T03:42:57.943Z,80.05
2022-09-28T03:45:24.517Z,79.93
2022-09-28T03:47:51.094Z,79.45
2022-09-28T03:50:17.650Z,78.81
2022-09-28T03:52:44.102Z,79.51
2022-09-28T03:55:10.952Z,80.33
2022-09-28T03:57:37.672Z,80.19
2022-09-28T04:00:08.024Z,80.05
2022-09-28T04:02:34.946Z,79.64
2022-09-28T04:05:01.859Z,78.75
2022-09-28T04:07:31.036Z,78.31
2022-09-28T04:09:57.871Z,78.86
2022-09-28T04:12:24.367Z,77.68
2022-09-28T04:14:50.973Z,79.66
2022-09-28T04:17:17.419Z,78.78
2022-09-28T04:19:43.948Z,78.09
2022-09-28T04:22:10.415Z,78.09
2022-09-28T04:24:36.857Z,78.82
2022-09-28T04:27:21.858Z,77.50
2022-09-28T04:29:48.310Z,78.10
2022-09-28T04:32:14.833Z,78.72
2022-09-28T04:34:44.179Z,78.73
2022-09-28T04:37:10.979Z,78.33
2022-09-28T04:39:37.486Z,78.29
2022-09-28T04:42:03.960Z,79.26
2022-09-28T04:44:30.449Z,77.69
2022-09-28T04:46:57.306Z,78.10
2022-09-28T04:49:25.331Z,78.63
2022-09-28T04:51:51.821Z,78.39
2022-09-28T04:54:18.401Z,78.12
2022-09-28T04:56:45.181Z,78.15
2022-09-28T04:59:13.490Z,79.22
2022-09-28T05:01:40.018Z,79.51
2022-09-28T05:04:06.585Z,78.94
2022-09-28T05:06:33.025Z,78.61
2022-09-28T05:08:59.586Z,80.72
2022-09-28T05:11:26.135Z,79.06
2022-09-28T05:13:52.575Z,77.75
2022-09-28T05:16:20.450Z,78.68
2022-09-28T05:18:47.442Z,78.62
2022-09-28T05:21:15.255Z,77.83
2022-09-28T05:23:46.442Z,78.57
2022-09-28T05:26:13.500Z,77.80
2022-09-28T05:28:39.968Z,78.11
2022-09-28T05:31:07.176Z,77.56
2022-09-28T05:33:33.934Z,77.62
2022-09-28T05:36:01.801Z,78.13
2022-09-28T05:38:28.910Z,77.77
2022-09-28T05:40:55.691Z,78.38
2022-09-28T05:43:22.595Z,78.43
2022-09-28T05:45:53.033Z,78.80
2022-09-28T05:48:21.758Z,78.73
2022-09-28T05:50:54.374Z,78.05
2022-09-28T05:53:20.826Z,78.29
2022-09-28T05:55:47.730Z,79.42
2022-09-28T05:58:14.521Z,79.51
2022-09-28T06:00:41.146Z,80.09
2022-09-28T06:03:11.666Z,79.52
2022-09-28T06:05:39.392Z,79.04
2022-09-28T06:08:08.351Z,79.00
2022-09-28T06:10:34.936Z,79.40
2022-09-28T06:13:01.962Z,80.33
2022-09-28T06:15:31.325Z,78.60
2022-09-28T06:18:10.545Z,79.62
2022-09-28T06:20:39.675Z,78.27
2022-09-28T06:23:06.325Z,78.52
2022-09-28T06:25:32.752Z,79.50
2022-09-28T06:28:00.975Z,77.05
2022-09-28T06:30:28.924Z,78.58
2022-09-28T06:32:56.439Z,78.37
2022-09-28T06:35:25.441Z,77.43
2022-09-28T06:37:52.522Z,78.66
2022-09-28T06:40:19.884Z,78.66
2022-09-28T06:42:58.344Z,78.68
2022-09-28T06:45:25.664Z,77.98
2022-09-28T06:48:00.460Z,78.38
2022-09-28T06:50:32.267Z,78.39
2022-09-28T06:52:59.476Z,77.83
2022-09-28T06:55:26.678Z,78.15
2022-09-28T06:58:00.643Z,77.66
2022-09-28T07:00:28.373Z,78.12
2022-09-28T07:02:55.192Z,78.65
2022-09-28T07:05:26.710Z,79.25
2022-09-28T07:07:56.946Z,78.54
2022-09-28T07:10:24.692Z,78.10
2022-09-28T07:12:51.836Z,78.03
2022-09-28T07:15:19.177Z,77.67
2022-09-28T07:17:58.587Z,77.88
2022-09-28T07:20:27.597Z,77.44
2022-09-28T07:23:08.976Z,76.94
2022-09-28T07:25:45.405Z,78.63
2022-09-28T07:28:12.351Z,77.46
2022-09-28T07:30:38.902Z,76.41
2022-09-28T07:33:08.359Z,77.22
2022-09-28T07:35:34.887Z,77.43
2022-09-28T07:38:03.570Z,78.00
2022-09-28T07:40:49.094Z,76.46
2022-09-28T07:43:22.145Z,76.66
2022-09-28T07:45:50.073Z,77.11
2022-09-28T07:48:17.466Z,77.94
2022-09-28T07:50:52.258Z,76.97
2022-09-28T07:53:20.232Z,76.97
2022-09-28T07:55:54.487Z,76.65
2022-09-28T07:58:21.408Z,76.72
2022-09-28T08:00:49.382Z,76.22
2022-09-28T08:03:17.558Z,76.48
2022-09-28T08:05:44.258Z,76.26
2022-09-28T08:08:10.766Z,75.87
2022-09-28T08:10:37.858Z,75.26
2022-09-28T08:13:06.467Z,74.65
2022-09-28T08:15:37.024Z,74.33
2022-09-28T08:18:07.106Z,74.05
2022-09-28T08:20:52.732Z,73.48
2022-09-28T08:23:20.372Z,73.63
2022-09-28T08:25:53.942Z,73.40
2022-09-28T08:28:22.671Z,74.65
2022-09-28T08:30:50.170Z,74.61
2022-09-28T08:33:18.033Z,73.66
2022-09-28T08:35:46.838Z,73.22
2022-09-28T08:38:13.940Z,74.03
2022-09-28T08:41:05.367Z,72.63
2022-09-28T08:43:46.223Z,72.80
2022-09-28T08:46:15.311Z,73.63
2022-09-28T08:49:13.511Z,73.17
2022-09-28T08:51:48.103Z,73.34
2022-09-28T08:54:18.626Z,71.22
2022-09-28T08:56:49.917Z,72.37
2022-09-28T08:59:25.502Z,72.38
2022-09-28T09:02:01.395Z,72.35
2022-09-28T09:04:28.193Z,73.72
2022-09-28T09:07:29.945Z,74.64
2022-09-28T09:10:05.922Z,74.22
2022-09-28T09:15:47.397Z,72.34
2022-09-28T09:18:41.823Z,71.12
2022-09-28T09:21:27.707Z,72.34
2022-09-28T09:23:56.064Z,73.17
2022-09-28T09:26:39.587Z,73.57
2022-09-28T09:29:43.713Z,73.97
2022-09-28T09:32:53.434Z,73.23
2022-09-28T09:35:45.326Z,72.39
2022-09-28T09:38:28.516Z,72.36
2022-09-28T09:40:55.047Z,72.72
2022-09-28T09:43:58.788Z,72.79
2022-09-28T09:46:49.781Z,73.99
2022-09-28T09:49:19.718Z,73.77
2022-09-28T09:51:50.897Z,73.16
2022-09-28T09:54:35.557Z,74.37
2022-09-28T09:57:13.314Z,75.03
2022-09-28T09:59:41.866Z,74.93
2022-09-28T10:02:16.157Z,73.36
2022-09-28T10:04:46.751Z,73.33
2022-09-28T10:07:21.645Z,72.46
2022-09-28T10:09:49.045Z,72.88
2022-09-28T10:12:19.506Z,72.61
2022-09-28T10:14:46.533Z,71.71
2022-09-28T10:17:16.134Z,72.13
2022-09-28T10:19:43.038Z,72.65
2022-09-28T10:22:14.167Z,72.43
2022-09-28T10:24:46.102Z,72.96
2022-09-28T10:27:19.149Z,72.76
2022-09-28T10:30:04.112Z,72.08
2022-09-28T10:32:41.853Z,72.19
2022-09-28T10:35:28.113Z,73.50
2022-09-28T10:38:05.427Z,74.12
2022-09-28T10:40:47.831Z,72.09
2022-09-28T10:43:34.646Z,72.40
2022-09-28T10:46:09.704Z,72.09
2022-09-28T10:48:47.347Z,71.82
2022-09-28T10:51:13.868Z,74.58
2022-09-28T10:53:40.383Z,74.11
2022-09-28T10:56:18.334Z,72.43
2022-09-28T10:58:44.868Z,71.39
2022-09-28T11:01:14.090Z,70.92
2022-09-28T11:04:19.720Z,69.39
2022-09-28T11:06:47.022Z,69.21
2022-09-28T11:09:29.853Z,69.32
2022-09-28T11:11:58.834Z,72.19
2022-09-28T11:14:42.647Z,70.42
2022-09-28T11:17:24.379Z,69.70
2022-09-28T11:19:51.368Z,69.95
2022-09-28T11:22:44.925Z,69.64
2022-09-28T11:25:18.763Z,69.50
2022-09-28T11:27:51.393Z,70.50
2022-09-28T11:30:25.559Z,70.13
2022-09-28T11:32:54.425Z,70.08
2022-09-28T11:35:28.496Z,72.63
2022-09-28T11:38:07.779Z,71.19
2022-09-28T11:41:01.424Z,69.36
2022-09-28T11:43:40.076Z,69.14
2022-09-28T11:46:16.257Z,68.53
2022-09-28T11:48:51.605Z,67.01
2022-09-28T11:51:23.373Z,65.23
2022-09-28T11:53:53.609Z,63.59
2022-09-28T11:56:35.337Z,60.95
2022-09-28T11:59:11.485Z,60.89
2022-09-28T12:01:45.379Z,60.87
2022-09-28T12:04:24.080Z,60.89
2022-09-28T12:06:53.683Z,60.46
2022-09-28T12:09:32.305Z,57.51
2022-09-28T12:12:03.599Z,59.42
2022-09-28T12:14:33.732Z,59.16
2022-09-28T12:17:22.493Z,58.59
2022-09-28T12:19:53.488Z,60.01
2022-09-28T12:22:35.980Z,61.15
2022-09-28T12:25:04.040Z,59.10
2022-09-28T12:27:41.605Z,59.50
2022-09-28T12:30:19.340Z,58.97
2022-09-28T12:33:05.577Z,58.18
2022-09-28T12:35:53.215Z,58.54
2022-09-28T12:38:54.125Z,57.81
2022-09-28T12:41:55.262Z,59.13
2022-09-28T12:44:37.024Z,61.10
2022-09-28T12:47:18.060Z,61.71
2022-09-28T12:53:02.947Z,62.56
2022-09-28T12:55:44.957Z,62.33
2022-09-28T12:58:30.277Z,62.92
2022-09-28T13:01:08.843Z,62.48
2022-09-28T13:03:51.465Z,63.09
2022-09-28T13:06:23.962Z,64.38
2022-09-28T13:09:09.659Z,65.44
2022-09-28T13:11:54.925Z,64.92
2022-09-28T13:14:21.348Z,66.64
2022-09-28T13:17:00.736Z,65.96
2022-09-28T13:19:57.885Z,63.56
2022-09-28T13:22:45.873Z,63.16
2022-09-28T13:25:22.561Z,63.18
2022-09-28T13:28:15.643Z,63.81
2022-09-28T13:30:44.043Z,63.77
2022-09-28T13:33:17.572Z,63.92
2022-09-28T13:35:44.345Z,63.56
2022-09-28T13:38:17.452Z,64.98
2022-09-28T13:41:06.096Z,66.04
2022-09-28T13:43:41.718Z,64.93
2022-09-28T13:46:34.072Z,63.87
2022-09-28T13:49:21.522Z,64.45
2022-09-28T13:52:03.081Z,65.42
2022-09-28T13:55:08.095Z,66.44
2022-09-28T13:58:00.685Z,67.22
2022-09-28T14:00:30.792Z,68.74
2022-09-28T14:03:06.463Z,70.51
2022-09-28T14:05:44.165Z,72.44
2022-09-28T14:08:34.218Z,72.89
2022-09-28T14:11:34.960Z,76.36
2022-09-28T14:14:07.493Z,76.92
2022-09-28T14:16:35.586Z,77.28
2022-09-28T14:19:08.734Z,78.04
2022-09-28T14:21:50.509Z,79.16
2022-09-28T14:24:55.452Z,78.27
2022-09-28T14:27:48.446Z,79.52
2022-09-28T14:30:14.850Z,79.58
2022-09-28T14:32:46.266Z,79.21
2022-09-28T14:35:20.368Z,80.67
2022-09-28T14:38:07.652Z,80.63
2022-09-28T14:41:11.186Z,80.37
2022-09-28T14:43:58.622Z,79.76
2022-09-28T14:46:25.449Z,81.73
2022-09-28T14:49:02.503Z,81.93
2022-09-28T14:51:30.278Z,81.57
2022-09-28T14:54:02.804Z,79.56
2022-09-28T14:56:32.881Z,79.87
2022-09-28T14:59:00.158Z,81.40
2022-09-28T15:01:26.688Z,80.03
2022-09-28T15:03:57.242Z,79.42
2022-09-28T15:06:24.952Z,78.76
2022-09-28T15:08:51.474Z,78.88
2022-09-28T15:11:25.614Z,79.40
2022-09-28T15:14:06.178Z,79.51
2022-09-28T15:16:32.737Z,79.99
2022-09-28T15:19:32.566Z,79.25
2022-09-28T15:21:59.233Z,80.14
2022-09-28T15:24:31.901Z,76.77
2022-09-28T15:27:14.176Z,76.58
2022-09-28T15:29:40.632Z,77.07
2022-09-28T15:32:23.393Z,76.73
2022-09-28T15:34:52.976Z,78.73
2022-09-28T15:37:28.068Z,77.27
2022-09-28T15:39:55.774Z,76.90
2022-09-28T15:42:22.768Z,76.68
2022-09-28T15:45:01.803Z,76.39
2022-09-28T15:47:29.448Z,75.82
2022-09-28T15:50:03.624Z,77.48
2022-09-28T15:52:43.030Z,76.44
2022-09-28T15:55:34.988Z,75.78
2022-09-28T15:58:17.186Z,77.64
2022-09-28T16:00:51.351Z,76.53
2022-09-28T16:03:17.752Z,76.42
2022-09-28T16:05:53.077Z,75.67
2022-09-28T16:08:36.799Z,76.55
2022-09-28T16:11:17.023Z,76.28
2022-09-28T16:13:57.964Z,75.97
2022-09-28T16:16:41.193Z,75.50
2022-09-28T16:19:24.061Z,75.88
2022-09-28T16:21:55.848Z,75.55
2022-09-28T16:24:29.090Z,75.15
2022-09-28T16:26:58.531Z,75.11
2022-09-28T16:29:32.761Z,74.35
2022-09-28T16:32:24.817Z,74.26
2022-09-28T16:35:10.878Z,73.77
2022-09-28T16:37:37.904Z,73.84
2022-09-28T16:40:04.650Z,73.85
2022-09-28T16:42:31.870Z,74.20
2022-09-28T16:44:58.345Z,73.82
2022-09-28T16:47:24.968Z,74.43
2022-09-28T16:49:51.744Z,74.50
2022-09-28T16:52:38.158Z,73.93
2022-09-28T16:58:04.888Z,73.90
2022-09-28T17:00:31.876Z,74.01
2022-09-28T17:02:58.597Z,73.66
2022-09-28T17:05:26.300Z,73.84
2022-09-28T17:08:03.375Z,73.64
2022-09-28T17:11:02.140Z,74.22
2022-09-28T17:13:31.463Z,73.64
2022-09-28T17:15:58.406Z,72.84
2022-09-28T17:18:25.376Z,72.74
2022-09-28T17:20:55.109Z,73.55
2022-09-28T17:23:21.811Z,74.40
2022-09-28T17:25:48.493Z,77.65
2022-09-28T17:28:21.161Z,74.39
2022-09-28T17:30:48.007Z,73.60
2022-09-28T17:33:14.982Z,73.62
2022-09-28T17:35:42.514Z,74.67
2022-09-28T17:38:13.956Z,73.97
2022-09-28T17:40:41.019Z,73.73
2022-09-28T17:43:08.004Z,73.76
2022-09-28T17:45:38.934Z,73.50
2022-09-28T17:48:06.444Z,74.13
2022-09-28T17:50:34.934Z,75.16
2022-09-28T17:53:06.061Z,73.97
2022-09-28T17:55:34.511Z,75.44
2022-09-28T17:58:02.328Z,73.89
2022-09-28T18:00:29.052Z,73.92
2022-09-28T18:02:56.188Z,74.19
2022-09-28T18:05:24.540Z,74.11
2022-09-28T18:07:52.071Z,73.94
2022-09-28T18:10:21.454Z,74.23
2022-09-28T18:12:48.703Z,74.63
2022-09-28T18:15:16.076Z,74.71
2022-09-28T18:17:42.678Z,74.07
2022-09-28T18:20:11.047Z,74.39
2022-09-28T18:22:37.861Z,74.59
2022-09-28T18:25:05.171Z,75.09
2022-09-28T18:27:34.114Z,75.36
2022-09-28T18:30:01.276Z,74.95
2022-09-28T18:32:28.276Z,75.12
2022-09-28T18:34:54.793Z,74.42
2022-09-28T18:37:21.365Z,74.57
2022-09-28T18:39:47.892Z,75.65
2022-09-28T18:42:15.369Z,76.38
2022-09-28T18:44:41.909Z,76.41
2022-09-28T18:47:08.410Z,75.13
2022-09-28T18:49:34.891Z,74.39
2022-09-28T18:52:01.681Z,74.37
2022-09-28T18:54:28.219Z,75.46
2022-09-28T18:56:57.243Z,74.13
2022-09-28T18:59:24.296Z,74.55
2022-09-28T19:01:53.533Z,74.67
2022-09-28T19:04:20.546Z,74.45
2022-09-28T19:06:51.746Z,76.04
2022-09-28T19:09:20.088Z,74.47
2022-09-28T19:11:47.956Z,74.81
2022-09-28T19:14:16.988Z,74.41
2022-09-28T19:16:44.390Z,74.55
2022-09-28T19:19:13.873Z,75.37
2022-09-28T19:21:41.283Z,74.90
2022-09-28T19:24:07.803Z,74.71
2022-09-28T19:26:34.535Z,74.45
2022-09-28T19:29:02.746Z,74.05
2022-09-28T19:31:29.900Z,75.10
2022-09-28T19:33:56.814Z,74.28
2022-09-28T19:36:25.293Z,76.14
2022-09-28T19:38:52.697Z,74.74
2022-09-28T19:41:44.290Z,74.43
2022-09-28T19:44:24.452Z,73.76
2022-09-28T19:46:55.451Z,74.01
2022-09-28T19:49:23.575Z,74.41
2022-09-28T19:54:39.678Z,74.78
2022-09-28T19:57:08.736Z,73.91
2022-09-28T19:59:37.130Z,74.47
2022-09-28T20:02:06.215Z,74.18
2022-09-28T20:04:34.972Z,74.81
2022-09-28T20:07:02.015Z,74.83
2022-09-28T20:09:28.758Z,73.99
2022-09-28T20:11:55.356Z,74.00
2022-09-28T20:14:24.456Z,74.47
2022-09-28T20:16:53.152Z,74.38
2022-09-28T20:19:21.643Z,74.30
2022-09-28T20:21:48.404Z,74.28
2022-09-28T20:24:17.314Z,74.41
2022-09-28T20:26:44.384Z,75.33
2022-09-28T20:29:10.869Z,74.73
2022-09-28T20:31:37.631Z,74.32
2022-09-28T20:34:05.479Z,74.18
2022-09-28T20:36:32.178Z,74.40
2022-09-28T20:39:01.842Z,74.64
2022-09-28T20:41:29.353Z,74.12
2022-09-28T20:43:59.632Z,74.36
2022-09-28T20:46:29.582Z,74.55
2022-09-28T20:48:57.891Z,74.27
2022-09-28T20:51:24.373Z,75.07
2022-09-28T20:53:55.683Z,74.06
2022-09-28T20:56:27.241Z,74.56
2022-09-28T20:58:54.406Z,74.36
2022-09-28T21:01:22.832Z,74.11
2022-09-28T21:03:51.742Z,74.46
2022-09-28T21:06:19.584Z,74.21
2022-09-28T21:08:46.501Z,74.78
2022-09-28T21:11:14.636Z,74.08
2022-09-28T21:13:42.890Z,74.18
2022-09-28T21:16:11.394Z,74.06
2022-09-28T21:18:39.043Z,74.00
2022-09-28T21:21:08.551Z,74.61
2022-09-28T21:23:36.081Z,74.64
2022-09-28T21:26:05.386Z,74.80
2022-09-28T21:28:32.277Z,75.38
2022-09-28T21:30:58.955Z,74.67
2022-09-28T21:33:25.867Z,74.35
2022-09-28T21:35:52.395Z,74.27
2022-09-28T21:38:19.958Z,74.77
2022-09-28T21:40:46.678Z,75.16
2022-09-28T21:43:13.177Z,74.22
2022-09-28T21:45:39.778Z,75.20
2022-09-28T21:48:06.201Z,75.66
2022-09-28T21:50:33.302Z,75.64
2022-09-28T21:53:00.242Z,75.61
2022-09-28T21:55:26.842Z,74.10
2022-09-28T21:57:53.362Z,75.08
2022-09-28T22:00:23.199Z,74.25
2022-09-28T22:02:50.679Z,74.67
2022-09-28T22:05:17.727Z,74.35
2022-09-28T22:07:44.309Z,74.80
2022-09-28T22:10:13.698Z,74.89
2022-09-28T22:12:40.331Z,75.41
2022-09-28T22:15:07.475Z,76.40
2022-09-28T22:17:33.915Z,75.90
2022-09-28T22:20:01.304Z,75.01
2022-09-28T22:22:29.319Z,75.78
2022-09-28T22:24:56.205Z,76.71
2022-09-28T22:27:22.713Z,75.41
2022-09-28T22:29:49.330Z,75.63
2022-09-28T22:32:15.752Z,75.87
2022-09-28T22:34:42.311Z,76.10
2022-09-28T22:37:08.772Z,76.03
2022-09-28T22:39:37.693Z,75.39
2022-09-28T22:42:04.665Z,75.33
2022-09-28T22:44:31.145Z,76.04
2022-09-28T22:46:58.084Z,75.88
2022-09-28T22:49:24.583Z,77.37
2022-09-28T22:51:51.109Z,77.26
2022-09-28T22:54:17.617Z,77.13
2022-09-28T22:56:44.183Z,76.88
2022-09-28T22:59:11.674Z,76.44
2022-09-28T23:01:38.686Z,76.67
2022-09-28T23:04:05.457Z,76.98
2022-09-28T23:06:33.077Z,76.50
2022-09-28T23:08:59.860Z,75.72
2022-09-28T23:11:27.570Z,76.26
2022-09-28T23:13:56.133Z,76.13
2022-09-28T23:16:25.457Z,76.54
2022-09-28T23:18:53.454Z,76.90
2022-09-28T23:21:23.272Z,76.16
2022-09-28T23:23:58.067Z,77.71
2022-09-28T23:26:27.470Z,77.66
2022-09-28T23:28:54.442Z,78.18
2022-09-28T23:31:27.280Z,77.93
2022-09-28T23:34:01.822Z,78.13
2022-09-28T23:36:28.789Z,77.77
2022-09-28T23:38:55.294Z,77.55
2022-09-28T23:41:21.909Z,77.25
2022-09-28T23:43:48.343Z,77.79
2022-09-28T23:46:20.283Z,78.23
2022-09-28T23:48:47.293Z,78.13
2022-09-28T23:51:13.761Z,77.64
2022-09-28T23:53:40.240Z,78.96
2022-09-28T23:56:06.727Z,78.63
2022-09-28T23:58:33.174Z,78.34
